createdAt,value
2022-12-29T00:00:08.703Z,114.87
2022-12-29T00:02:42.462Z,111.60
2022-12-29T00:05:10.358Z,114.97
2022-12-29T00:07:37.841Z,115.07
2022-12-29T00:10:05.976Z,115.07
2022-12-29T00:12:52.895Z,115.07
2022-12-29T00:15:38.370Z,114.23
2022-12-29T00:18:06.755Z,111.50
2022-12-29T00:20:57.645Z,115.00
2022-12-29T00:23:43.964Z,115.00
2022-12-29T00:26:34.874Z,114.90
2022-12-29T00:29:20.766Z,114.97
2022-12-29T00:32:07.662Z,114.97
2022-12-29T00:34:53.770Z,114.67
2022-12-29T00:37:41.824Z,114.30
2022-12-29T00:40:28.024Z,115.23
2022-12-29T00:43:13.963Z,114.10
2022-12-29T00:45:42.851Z,111.77
2022-12-29T00:48:10.293Z,115.07
2022-12-29T00:50:37.910Z,114.90
2022-12-29T00:53:05.423Z,115.17
2022-12-29T00:55:32.467Z,113.70
2022-12-29T00:57:59.527Z,114.93
2022-12-29T01:00:26.979Z,113.77
2022-12-29T01:02:54.076Z,114.87
2022-12-29T01:05:21.158Z,114.97
2022-12-29T01:07:48.573Z,114.70
2022-12-29T01:10:16.158Z,114.50
2022-12-29T01:12:43.236Z,115.07
2022-12-29T01:15:14.957Z,114.77
2022-12-29T01:17:43.371Z,114.97
2022-12-29T01:20:11.663Z,115.20
2022-12-29T01:22:39.411Z,113.37
2022-12-29T01:25:07.860Z,114.67
2022-12-29T01:27:35.492Z,114.67
2022-12-29T01:30:02.499Z,115.07
2022-12-29T01:32:29.464Z,114.60
2022-12-29T01:34:56.416Z,113.97
2022-12-29T01:37:23.412Z,114.97
2022-12-29T01:39:50.804Z,114.87
2022-12-29T01:42:20.681Z,114.97
2022-12-29T01:44:59.234Z,115.13
2022-12-29T01:47:59.428Z,114.77
2022-12-29T01:50:39.436Z,114.37
2022-12-29T01:53:29.184Z,113.77
2022-12-29T01:56:06.003Z,115.20
2022-12-29T01:58:41.056Z,114.30
2022-12-29T02:01:08.896Z,114.87
2022-12-29T02:03:38.150Z,114.77
2022-12-29T02:06:44.663Z,114.50
2022-12-29T02:09:11.784Z,114.97
2022-12-29T02:11:40.772Z,113.67
2022-12-29T02:14:13.867Z,113.83
2022-12-29T02:17:13.297Z,114.80
2022-12-29T02:20:41.669Z,115.27
2022-12-29T02:24:16.580Z,114.87
2022-12-29T02:27:36.871Z,114.57
2022-12-29T02:30:18.993Z,114.97
2022-12-29T02:33:24.501Z,114.70
2022-12-29T02:36:47.558Z,114.20
2022-12-29T02:40:08.683Z,115.00
2022-12-29T02:43:24.384Z,115.27
2022-12-29T02:46:19.247Z,114.77
2022-12-29T02:49:00.881Z,115.07
2022-12-29T02:51:41.241Z,115.37
2022-12-29T02:54:27.332Z,114.87
2022-12-29T02:56:54.823Z,115.27
2022-12-29T02:59:23.267Z,115.57
2022-12-29T03:02:33.914Z,115.10
2022-12-29T03:05:41.096Z,115.27
2022-12-29T03:08:54.999Z,114.43
2022-12-29T03:11:53.923Z,115.10
2022-12-29T03:14:58.683Z,115.03
2022-12-29T03:17:39.251Z,114.50
2022-12-29T03:20:17.423Z,114.87
2022-12-29T03:22:52.268Z,115.07
2022-12-29T03:25:33.075Z,115.73
2022-12-29T03:28:40.389Z,115.67
2022-12-29T03:31:11.190Z,115.20
2022-12-29T03:33:42.886Z,115.40
2022-12-29T03:36:35.055Z,114.30
2022-12-29T03:39:13.021Z,115.20
2022-12-29T03:41:45.511Z,115.10
2022-12-29T03:44:14.493Z,114.77
2022-12-29T03:46:42.062Z,115.30
2022-12-29T03:49:10.031Z,115.00
2022-12-29T03:51:37.184Z,115.03
2022-12-29T03:54:06.175Z,115.37
2022-12-29T03:56:34.151Z,116.10
2022-12-29T03:59:02.280Z,115.53
2022-12-29T04:01:38.258Z,115.20
2022-12-29T04:04:05.740Z,115.40
2022-12-29T04:06:32.802Z,115.20
2022-12-29T04:09:04.564Z,114.77
2022-12-29T04:11:35.330Z,115.10
2022-12-29T04:14:04.816Z,114.37
2022-12-29T04:16:36.432Z,115.30
2022-12-29T04:19:06.615Z,115.13
2022-12-29T04:21:35.897Z,115.20
2022-12-29T04:24:03.056Z,114.60
2022-12-29T04:26:33.621Z,115.83
2022-12-29T04:29:15.284Z,115.47
2022-12-29T04:32:01.012Z,115.33
2022-12-29T04:34:29.928Z,115.47
2022-12-29T04:36:57.112Z,112.37
2022-12-29T04:39:24.195Z,115.53
2022-12-29T04:41:51.589Z,115.40
2022-12-29T04:44:21.428Z,115.67
2022-12-29T04:47:05.629Z,114.80
2022-12-29T04:49:51.347Z,115.83
2022-12-29T04:52:53.810Z,114.17
2022-12-29T04:55:21.791Z,115.00
2022-12-29T04:57:48.735Z,115.37
2022-12-29T05:00:20.010Z,115.40
2022-12-29T05:02:48.435Z,113.50
2022-12-29T05:05:16.863Z,115.77
2022-12-29T05:07:48.297Z,116.07
2022-12-29T05:10:15.452Z,115.70
2022-12-29T05:12:42.992Z,114.57
2022-12-29T05:15:12.171Z,114.57
2022-12-29T05:17:39.356Z,115.40
2022-12-29T05:20:09.546Z,115.77
2022-12-29T05:22:37.932Z,116.33
2022-12-29T05:25:06.469Z,115.20
2022-12-29T05:27:41.492Z,115.10
2022-12-29T05:30:38.538Z,115.30
2022-12-29T05:33:07.436Z,114.57
2022-12-29T05:35:35.397Z,115.87
2022-12-29T05:38:03.020Z,115.40
2022-12-29T05:40:31.126Z,115.30
2022-12-29T05:43:01.871Z,115.47
2022-12-29T05:45:50.796Z,115.47
2022-12-29T05:48:45.133Z,115.67
2022-12-29T05:51:25.708Z,114.30
2022-12-29T05:53:54.577Z,113.90
2022-12-29T05:56:23.543Z,114.03
2022-12-29T05:58:57.821Z,112.40
2022-12-29T06:01:25.229Z,115.10
2022-12-29T06:03:52.438Z,115.10
2022-12-29T06:06:21.547Z,115.83
2022-12-29T06:08:48.989Z,115.00
2022-12-29T06:11:16.513Z,115.07
2022-12-29T06:13:50.205Z,115.43
2022-12-29T06:16:17.614Z,114.50
2022-12-29T06:18:45.011Z,111.77
2022-12-29T06:21:12.603Z,115.17
2022-12-29T06:23:40.161Z,114.10
2022-12-29T06:26:07.204Z,114.60
2022-12-29T06:28:34.673Z,114.50
2022-12-29T06:31:03.726Z,113.67
2022-12-29T06:33:31.509Z,113.50
2022-12-29T06:35:58.696Z,113.27
2022-12-29T06:38:26.102Z,114.30
2022-12-29T06:40:53.130Z,114.97
2022-12-29T06:43:20.545Z,114.70
2022-12-29T06:46:05.908Z,113.17
2022-12-29T06:48:33.408Z,115.20
2022-12-29T06:51:00.781Z,114.30
2022-12-29T06:53:27.868Z,113.50
2022-12-29T06:55:55.111Z,114.97
2022-12-29T06:58:22.195Z,114.00
2022-12-29T07:00:49.483Z,111.37
2022-12-29T07:03:17.027Z,111.47
2022-12-29T07:05:44.247Z,114.57
2022-12-29T07:08:11.251Z,115.07
2022-12-29T07:10:38.751Z,114.33
2022-12-29T07:13:05.824Z,114.67
2022-12-29T07:15:32.767Z,114.67
2022-12-29T07:17:59.725Z,114.53
2022-12-29T07:20:27.510Z,113.60
2022-12-29T07:22:54.838Z,113.97
2022-12-29T07:25:22.101Z,114.67
2022-12-29T07:27:49.580Z,114.20
2022-12-29T07:30:17.256Z,114.10
2022-12-29T07:32:44.478Z,114.57
2022-12-29T07:35:11.890Z,114.07
2022-12-29T07:37:38.904Z,114.10
2022-12-29T07:40:07.039Z,114.37
2022-12-29T07:42:34.258Z,114.20
2022-12-29T07:45:01.197Z,115.17
2022-12-29T07:47:34.644Z,114.47
2022-12-29T07:50:02.283Z,115.07
2022-12-29T07:52:29.278Z,114.50
2022-12-29T07:54:56.303Z,114.77
2022-12-29T07:57:29.677Z,115.13
2022-12-29T07:59:59.100Z,115.17
2022-12-29T08:02:27.541Z,114.13
2022-12-29T08:04:54.950Z,115.20
2022-12-29T08:07:22.213Z,114.60
2022-12-29T08:09:49.256Z,113.70
2022-12-29T08:12:16.325Z,114.97
2022-12-29T08:14:43.755Z,111.97
2022-12-29T08:17:11.176Z,113.87
2022-12-29T08:19:39.110Z,114.47
2022-12-29T08:22:06.105Z,115.37
2022-12-29T08:24:33.523Z,115.50
2022-12-29T08:27:08.349Z,115.00
2022-12-29T08:29:40.697Z,115.37
2022-12-29T08:32:07.893Z,114.90
2022-12-29T08:34:35.349Z,115.97
2022-12-29T08:37:02.313Z,115.33
2022-12-29T08:39:29.452Z,114.83
2022-12-29T08:41:56.818Z,115.30
2022-12-29T08:44:24.015Z,112.97
2022-12-29T08:46:51.616Z,115.20
2022-12-29T08:49:18.604Z,115.87
2022-12-29T08:51:45.669Z,115.70
2022-12-29T08:54:12.640Z,115.90
2022-12-29T08:56:40.877Z,116.03
2022-12-29T08:59:08.764Z,115.87
2022-12-29T09:06:45.602Z,115.70
2022-12-29T09:09:13.309Z,115.67
2022-12-29T09:11:41.206Z,116.47
2022-12-29T09:14:08.692Z,115.67
2022-12-29T09:16:37.723Z,115.27
2022-12-29T09:19:05.464Z,115.80
2022-12-29T09:21:32.848Z,116.10
2022-12-29T09:24:00.253Z,114.67
2022-12-29T09:26:27.369Z,116.17
2022-12-29T09:28:54.774Z,115.33
2022-12-29T09:31:21.815Z,115.77
2022-12-29T09:33:48.865Z,116.77
2022-12-29T09:36:15.803Z,116.03
2022-12-29T09:38:43.445Z,115.80
2022-12-29T09:41:35.164Z,116.80
2022-12-29T09:44:21.825Z,116.20
2022-12-29T09:46:54.156Z,116.07
2022-12-29T09:49:34.418Z,116.87
2022-12-29T09:52:15.912Z,114.57
2022-12-29T09:55:14.087Z,116.03
2022-12-29T09:57:55.648Z,116.77
2022-12-29T10:01:00.296Z,116.40
2022-12-29T10:03:52.684Z,116.77
2022-12-29T10:06:32.791Z,116.30
2022-12-29T10:09:35.799Z,116.20
2022-12-29T10:12:50.636Z,117.10
2022-12-29T10:16:09.612Z,116.10
2022-12-29T10:18:53.771Z,116.37
2022-12-29T10:22:10.169Z,116.97
2022-12-29T10:24:40.853Z,116.60
2022-12-29T10:27:16.193Z,116.13
2022-12-29T10:29:56.354Z,116.70
2022-12-29T10:32:35.779Z,116.97
2022-12-29T10:35:15.494Z,115.47
2022-12-29T10:38:16.852Z,116.60
2022-12-29T10:41:09.987Z,115.87
2022-12-29T10:43:54.272Z,115.67
2022-12-29T10:46:31.409Z,116.73
2022-12-29T10:48:58.512Z,116.67
2022-12-29T10:51:39.698Z,116.27
2022-12-29T10:54:46.719Z,117.10
2022-12-29T10:57:40.664Z,116.37
2022-12-29T11:00:22.140Z,115.90
2022-12-29T11:03:34.789Z,117.33
2022-12-29T11:06:28.306Z,117.27
2022-12-29T11:09:10.963Z,116.70
2022-12-29T11:11:38.807Z,117.17
2022-12-29T11:14:24.196Z,117.57
2022-12-29T11:17:05.210Z,117.20
2022-12-29T11:19:40.556Z,116.90
2022-12-29T11:22:28.876Z,117.30
2022-12-29T11:25:11.925Z,116.83
2022-12-29T11:27:40.709Z,116.13
2022-12-29T11:30:32.601Z,117.67
2022-12-29T11:33:04.219Z,117.20
2022-12-29T11:35:43.356Z,117.40
2022-12-29T11:38:33.730Z,117.37
2022-12-29T11:41:00.892Z,117.50
2022-12-29T11:43:39.467Z,117.00
2022-12-29T11:46:07.584Z,117.27
2022-12-29T11:48:42.743Z,117.77
2022-12-29T11:51:12.733Z,116.57
2022-12-29T11:53:48.519Z,115.67
2022-12-29T11:56:23.525Z,117.30
2022-12-29T11:58:51.643Z,115.87
2022-12-29T12:01:35.802Z,115.40
2022-12-29T12:04:18.323Z,116.10
2022-12-29T12:07:13.509Z,116.57
2022-12-29T12:09:59.054Z,117.50
2022-12-29T12:12:48.679Z,116.47
2022-12-29T12:15:43.389Z,116.20
2022-12-29T12:18:18.048Z,116.90
2022-12-29T12:21:26.620Z,115.87
2022-12-29T12:24:34.610Z,117.50
2022-12-29T12:27:20.201Z,116.37
2022-12-29T12:30:17.392Z,117.20
2022-12-29T12:33:24.025Z,116.73
2022-12-29T12:36:47.195Z,117.57
2022-12-29T12:39:22.922Z,117.67
2022-12-29T12:42:33.255Z,118.07
2022-12-29T12:45:47.921Z,116.07
2022-12-29T12:49:22.010Z,116.13
2022-12-29T12:52:41.275Z,117.30
2022-12-29T12:56:19.099Z,116.37
2022-12-29T12:59:18.275Z,117.10
2022-12-29T13:02:33.846Z,116.07
2022-12-29T13:05:27.073Z,117.40
2022-12-29T13:08:59.051Z,116.83
2022-12-29T13:11:54.777Z,116.07
2022-12-29T13:15:08.212Z,116.67
2022-12-29T13:17:46.200Z,117.60
2022-12-29T13:20:37.913Z,117.20
2022-12-29T13:24:03.280Z,117.57
2022-12-29T13:26:47.916Z,117.00
2022-12-29T13:29:41.681Z,117.23
2022-12-29T13:32:56.957Z,116.87
2022-12-29T13:35:56.850Z,116.77
2022-12-29T13:38:35.833Z,116.80
2022-12-29T13:41:19.946Z,117.57
2022-12-29T13:43:51.422Z,115.40
2022-12-29T13:46:32.498Z,117.67
2022-12-29T13:49:20.416Z,117.13
2022-12-29T13:52:13.524Z,116.80
2022-12-29T13:55:26.975Z,115.57
2022-12-29T13:58:33.251Z,115.97
2022-12-29T14:01:43.171Z,117.07
2022-12-29T14:04:26.917Z,117.47
2022-12-29T14:07:17.749Z,117.43
2022-12-29T14:09:56.821Z,116.77
2022-12-29T14:12:34.411Z,117.17
2022-12-29T14:15:23.676Z,116.60
2022-12-29T14:18:26.110Z,117.47
2022-12-29T14:21:09.245Z,116.70
2022-12-29T14:23:46.084Z,116.90
2022-12-29T14:26:35.898Z,117.47
2022-12-29T14:29:26.730Z,117.27
2022-12-29T14:31:54.263Z,116.90
2022-12-29T14:34:21.222Z,116.97
2022-12-29T14:37:04.887Z,117.10
2022-12-29T14:39:46.434Z,117.17
2022-12-29T14:42:20.673Z,116.90
2022-12-29T14:44:51.923Z,117.37
2022-12-29T14:47:42.033Z,115.47
2022-12-29T14:50:22.006Z,116.60
2022-12-29T14:53:05.904Z,117.00
2022-12-29T14:55:50.616Z,117.07
2022-12-29T14:58:43.480Z,117.47
2022-12-29T15:01:41.096Z,115.00
2022-12-29T15:04:32.578Z,116.23
2022-12-29T15:07:04.283Z,116.20
2022-12-29T15:09:43.699Z,116.07
2022-12-29T15:12:42.999Z,116.00
2022-12-29T15:15:29.277Z,115.80
2022-12-29T15:17:56.796Z,116.30
2022-12-29T15:20:32.524Z,117.17
2022-12-29T15:23:11.103Z,115.50
2022-12-29T15:25:58.535Z,117.17
2022-12-29T15:28:28.795Z,116.13
2022-12-29T15:31:05.489Z,116.40
2022-12-29T15:33:40.872Z,116.70
2022-12-29T15:36:25.529Z,117.37
2022-12-29T15:38:53.460Z,116.70
2022-12-29T15:42:00.663Z,116.63
2022-12-29T15:44:45.147Z,116.60
2022-12-29T15:47:22.717Z,116.00
2022-12-29T15:49:54.794Z,115.87
2022-12-29T15:52:24.551Z,117.13
2022-12-29T15:54:54.360Z,116.30
2022-12-29T15:57:29.472Z,116.00
2022-12-29T15:59:57.206Z,116.87
2022-12-29T16:02:26.144Z,116.17
2022-12-29T16:05:17.552Z,117.03
2022-12-29T16:07:59.600Z,115.87
2022-12-29T16:10:43.087Z,116.20
2022-12-29T16:13:40.422Z,115.90
2022-12-29T16:16:28.304Z,116.30
2022-12-29T16:18:58.094Z,116.70
2022-12-29T16:21:36.592Z,116.07
2022-12-29T16:24:13.017Z,116.77
2022-12-29T16:26:40.652Z,116.83
2022-12-29T16:29:09.167Z,116.40
2022-12-29T16:32:03.797Z,116.20
2022-12-29T16:34:47.642Z,117.10
2022-12-29T16:37:40.189Z,115.70
2022-12-29T16:40:19.227Z,116.27
2022-12-29T16:42:52.069Z,115.27
2022-12-29T16:45:19.460Z,116.87
2022-12-29T16:48:20.536Z,114.80
2022-12-29T16:50:49.241Z,115.07
2022-12-29T16:53:28.499Z,115.77
2022-12-29T16:56:01.408Z,117.03
2022-12-29T16:58:32.432Z,115.57
2022-12-29T17:01:01.272Z,116.20
2022-12-29T17:03:43.110Z,116.53
2022-12-29T17:06:18.728Z,115.97
2022-12-29T17:08:47.653Z,115.70
2022-12-29T17:11:42.464Z,116.47
2022-12-29T17:14:48.468Z,116.40
2022-12-29T17:17:33.478Z,115.37
2022-12-29T17:20:30.775Z,115.53
2022-12-29T17:23:00.070Z,116.40
2022-12-29T17:25:33.689Z,116.37
2022-12-29T17:28:22.769Z,116.07
2022-12-29T17:30:58.739Z,116.57
2022-12-29T17:33:26.144Z,116.27
2022-12-29T17:35:55.888Z,116.50
2022-12-29T17:38:30.165Z,116.23
2022-12-29T17:40:58.572Z,116.20
2022-12-29T17:43:30.073Z,116.37
2022-12-29T17:46:02.250Z,116.67
2022-12-29T17:48:29.337Z,116.73
2022-12-29T17:50:58.277Z,116.40
2022-12-29T17:53:29.966Z,116.27
2022-12-29T17:55:57.574Z,116.47
2022-12-29T17:58:31.594Z,116.47
2022-12-29T18:01:02.350Z,116.37
2022-12-29T18:03:40.653Z,116.07
2022-12-29T18:06:12.132Z,115.57
2022-12-29T18:08:41.337Z,116.33
2022-12-29T18:11:27.629Z,116.37
2022-12-29T18:13:55.446Z,115.70
2022-12-29T18:16:23.473Z,115.30
2022-12-29T18:18:50.842Z,116.30
2022-12-29T18:21:22.646Z,115.60
2022-12-29T18:23:51.235Z,115.30
2022-12-29T18:26:28.501Z,115.77
2022-12-29T18:28:58.139Z,116.00
2022-12-29T18:31:29.708Z,116.17
2022-12-29T18:34:01.777Z,116.07
2022-12-29T18:36:29.184Z,115.60
2022-12-29T18:38:56.811Z,115.80
2022-12-29T18:41:29.838Z,115.70
2022-12-29T18:44:02.315Z,115.77
2022-12-29T18:46:30.067Z,115.93
2022-12-29T18:48:57.128Z,115.77
2022-12-29T18:51:26.060Z,114.90
2022-12-29T18:53:56.834Z,115.77
2022-12-29T18:56:24.599Z,115.87
2022-12-29T18:58:53.465Z,115.97
2022-12-29T19:01:27.662Z,115.90
2022-12-29T19:03:55.596Z,112.47
2022-12-29T19:06:23.714Z,116.10
2022-12-29T19:08:51.193Z,116.27
2022-12-29T19:11:18.893Z,115.20
2022-12-29T19:13:45.878Z,116.10
2022-12-29T19:16:24.908Z,115.70
2022-12-29T19:19:08.523Z,116.17
2022-12-29T19:21:39.194Z,115.80
2022-12-29T19:24:07.639Z,115.30
2022-12-29T19:26:39.612Z,115.90
2022-12-29T19:29:14.647Z,114.77
2022-12-29T19:31:42.423Z,115.80
2022-12-29T19:34:15.023Z,115.97
2022-12-29T19:36:44.500Z,116.10
2022-12-29T19:39:13.307Z,115.90
2022-12-29T19:41:40.998Z,115.50
2022-12-29T19:44:08.284Z,115.70
2022-12-29T19:46:35.406Z,116.30
2022-12-29T19:49:02.585Z,116.30
2022-12-29T19:51:29.721Z,116.00
2022-12-29T19:53:58.305Z,115.70
2022-12-29T19:56:25.388Z,116.17
2022-12-29T19:58:52.427Z,114.67
2022-12-29T20:01:23.226Z,114.00
2022-12-29T20:03:51.719Z,116.20
2022-12-29T20:06:20.112Z,115.60
2022-12-29T20:08:47.235Z,116.07
2022-12-29T20:11:19.376Z,116.27
2022-12-29T20:13:47.139Z,116.10
2022-12-29T20:16:20.325Z,116.13
2022-12-29T20:18:49.183Z,116.37
2022-12-29T20:21:24.009Z,116.00
2022-12-29T20:23:54.504Z,115.50
2022-12-29T20:26:28.517Z,114.47
2022-12-29T20:28:57.956Z,114.77
2022-12-29T20:31:36.862Z,114.07
2022-12-29T20:34:07.607Z,115.97
2022-12-29T20:36:42.692Z,115.97
2022-12-29T20:39:17.783Z,115.53
2022-12-29T20:41:46.428Z,116.07
2022-12-29T20:44:13.859Z,113.07
2022-12-29T20:46:44.323Z,115.37
2022-12-29T20:49:12.090Z,115.47
2022-12-29T20:52:05.038Z,115.87
2022-12-29T20:54:26.592Z,114.80
2022-12-29T20:56:53.979Z,115.37
2022-12-29T20:59:29.318Z,115.30
2022-12-29T21:01:58.059Z,115.57
2022-12-29T21:04:25.816Z,115.47
2022-12-29T21:06:53.019Z,115.03
2022-12-29T21:09:20.510Z,113.87
2022-12-29T21:11:48.815Z,115.07
2022-12-29T21:14:15.894Z,115.67
2022-12-29T21:16:43.068Z,115.60
2022-12-29T21:19:10.590Z,115.30
2022-12-29T21:21:37.729Z,115.00
2022-12-29T21:24:07.632Z,115.07
2022-12-29T21:26:35.665Z,114.87
2022-12-29T21:29:03.949Z,115.00
2022-12-29T21:31:36.489Z,114.97
2022-12-29T21:34:05.682Z,115.10
2022-12-29T21:36:33.797Z,115.27
2022-12-29T21:39:03.290Z,115.47
2022-12-29T21:41:31.398Z,114.90
2022-12-29T21:44:18.013Z,115.00
2022-12-29T21:46:47.659Z,114.90
2022-12-29T21:49:15.958Z,115.37
2022-12-29T21:51:53.889Z,115.47
2022-12-29T21:54:47.576Z,114.57
2022-12-29T21:57:37.999Z,114.50
2022-12-29T22:00:28.380Z,113.87
2022-12-29T22:03:22.588Z,114.50
2022-12-29T22:06:10.891Z,114.70
2022-12-29T22:08:58.165Z,111.87
2022-12-29T22:11:44.938Z,115.17
2022-12-29T22:14:12.093Z,113.57
2022-12-29T22:16:39.143Z,114.40
2022-12-29T22:19:07.786Z,114.97
2022-12-29T22:21:34.762Z,112.20
2022-12-29T22:24:02.197Z,114.00
2022-12-29T22:26:29.161Z,113.77
2022-12-29T22:28:56.777Z,114.67
2022-12-29T22:31:30.775Z,114.97
2022-12-29T22:34:01.641Z,114.70
2022-12-29T22:36:30.170Z,114.40
2022-12-29T22:38:57.735Z,113.37
2022-12-29T22:41:25.184Z,111.87
2022-12-29T22:43:52.359Z,112.57
2022-12-29T22:46:20.052Z,113.70
2022-12-29T22:48:48.556Z,113.80
2022-12-29T22:51:16.014Z,115.17
2022-12-29T22:53:43.037Z,113.50
2022-12-29T22:56:14.405Z,114.27
2022-12-29T22:58:44.718Z,114.10
2022-12-29T23:01:15.939Z,113.87
2022-12-29T23:03:43.950Z,113.97
2022-12-29T23:06:17.128Z,114.47
2022-12-29T23:08:44.800Z,114.47
2022-12-29T23:11:13.226Z,114.60
2022-12-29T23:13:41.567Z,114.93
2022-12-29T23:16:08.688Z,114.50
2022-12-29T23:18:36.140Z,114.43
2022-12-29T23:21:03.387Z,114.20
2022-12-29T23:23:49.979Z,114.37
2022-12-29T23:26:44.496Z,115.00
2022-12-29T23:29:17.387Z,114.97
2022-12-29T23:31:45.837Z,113.57
2022-12-29T23:34:15.375Z,114.23
2022-12-29T23:36:42.868Z,114.80
2022-12-29T23:39:18.055Z,114.60
2022-12-29T23:41:45.547Z,114.70
2022-12-29T23:44:12.529Z,113.37
2022-12-29T23:46:40.933Z,114.63
2022-12-29T23:49:09.843Z,115.10
2022-12-29T23:51:37.473Z,113.37
2022-12-29T23:54:05.120Z,115.07
2022-12-29T23:56:32.330Z,114.10
2022-12-29T23:58:59.428Z,114.77
